Time;durP1;ratioP1;P1;durP2;ratioP2;P2;SDS_P1;SDS_P2;PMS_P1;PMS_P2;Temp;Humidity;BMP_temperature;BMP_pressure;BME280_temperature;BME280_humidity;BME280_pressure;Samples;Min_cycle;Max_cycle;Signal;HPM_P1;HPM_P2
2023/01/23 00:01:27;;;;;;;6.97;4.65;;;2.70;99.90;;;2.48;nan;102087.06;5016582;28;20575;-66
2023/01/23 00:03:56;;;;;;;7.80;5.25;;;2.70;99.90;;;2.47;nan;102081.06;5018133;28;20222;-65
2023/01/23 00:06:24;;;;;;;7.63;5.78;;;2.80;99.90;;;2.45;nan;102084.56;5021022;28;20207;-66
2023/01/23 00:08:51;;;;;;;7.70;4.72;;;2.70;99.90;;;2.45;nan;102084.56;5013300;28;20260;-69
2023/01/23 00:11:24;;;;;;;5.55;3.78;;;2.80;99.90;;;2.43;nan;102083.72;5012641;28;20210;-68
2023/01/23 00:13:52;;;;;;;7.47;5.18;;;2.70;99.90;;;2.44;nan;102090.56;5012798;28;20227;-66
2023/01/23 00:16:22;;;;;;;9.98;5.82;;;2.70;99.90;;;2.47;nan;102091.38;5014041;28;20214;-66
2023/01/23 00:18:50;;;;;;;7.18;5.47;;;2.70;99.90;;;2.47;nan;102086.22;5012921;28;20234;-66
2023/01/23 00:21:21;;;;;;;7.80;5.40;;;2.80;99.90;;;2.48;nan;102085.34;5013894;28;20575;-66
2023/01/23 00:23:54;;;;;;;9.30;5.75;;;2.80;99.90;;;2.46;nan;102086.25;5013363;28;20237;-66
2023/01/23 00:26:25;;;;;;;7.85;5.13;;;2.80;99.90;;;2.42;nan;102082.88;5017624;28;20861;-66
2023/01/23 00:28:53;;;;;;;7.57;5.00;;;2.70;99.90;;;2.40;nan;102084.63;5012852;28;20206;-66
2023/01/23 00:31:24;;;;;;;7.30;5.55;;;2.70;99.90;;;2.41;nan;102090.63;5018535;28;20201;-65
2023/01/23 00:33:58;;;;;;;5.75;3.65;;;2.70;99.90;;;2.41;nan;102086.31;5017835;28;20618;-66
2023/01/23 00:36:31;;;;;;;6.72;5.15;;;2.70;99.90;;;2.43;nan;102086.31;5019496;28;20556;-66
2023/01/23 00:38:58;;;;;;;6.10;4.40;;;2.70;99.90;;;2.43;nan;102081.16;5011737;28;20630;-66
2023/01/23 00:41:25;;;;;;;7.45;5.07;;;2.70;99.90;;;2.44;nan;102078.53;5019409;28;20240;-65
2023/01/23 00:43:52;;;;;;;7.07;4.47;;;2.70;99.90;;;2.49;nan;102089.66;5031673;28;20228;-66
2023/01/23 00:46:20;;;;;;;7.63;4.93;;;2.80;99.90;;;2.50;nan;102080.16;5015962;28;20373;-64
2023/01/23 00:48:48;;;;;;;6.95;4.72;;;2.80;99.90;;;2.50;nan;102080.16;5012259;28;20203;-65
2023/01/23 00:51:15;;;;;;;6.30;4.45;;;2.80;99.90;;;2.48;nan;102077.63;5011499;28;20210;-64
2023/01/23 00:53:43;;;;;;;8.10;5.00;;;2.80;99.90;;;2.47;nan;102086.22;5018615;28;20244;-65
2023/01/23 00:56:11;;;;;;;7.40;5.00;;;2.70;99.90;;;2.45;nan;102077.66;5025381;28;20217;-65
2023/01/23 00:58:39;;;;;;;5.15;4.60;;;2.70;99.90;;;2.45;nan;102093.13;5012265;28;20698;-67
2023/01/23 01:01:07;;;;;;;7.97;5.20;;;2.70;99.90;;;2.42;nan;102088.03;5011820;28;20213;-66
2023/01/23 01:03:34;;;;;;;7.07;5.35;;;2.70;99.90;;;2.39;nan;102085.47;5010536;28;20230;-69
2023/01/23 01:06:02;;;;;;;6.07;5.05;;;2.70;99.90;;;2.41;nan;102083.72;5027158;28;20202;-66
2023/01/23 01:08:29;;;;;;;7.45;5.55;;;2.70;99.90;;;2.42;nan;102092.31;5026430;28;20553;-65
2023/01/23 01:10:56;;;;;;;7.43;5.20;;;2.70;99.90;;;2.41;nan;102094.03;5029701;28;20202;-67
2023/01/23 01:13:23;;;;;;;7.40;5.13;;;2.70;99.90;;;2.43;nan;102092.28;5029738;28;20222;-65
2023/01/23 01:15:52;;;;;;;8.80;5.63;;;2.70;99.90;;;2.42;nan;102098.34;5026237;28;20251;-65
2023/01/23 01:18:19;;;;;;;7.75;5.05;;;2.70;99.90;;;2.42;nan;102095.75;5013071;28;20198;-67
2023/01/23 01:20:47;;;;;;;6.63;4.97;;;2.70;99.90;;;2.40;nan;102094.94;5012579;28;20213;-67
2023/01/23 01:23:14;;;;;;;5.30;4.40;;;2.70;99.90;;;2.37;nan;102094.97;5011859;28;20241;-67
2023/01/23 01:25:41;;;;;;;7.80;5.30;;;2.70;99.90;;;2.38;nan;102098.41;5011661;28;20203;-65
2023/01/23 01:28:08;;;;;;;7.35;4.90;;;2.70;99.90;;;2.37;nan;102092.38;5010334;28;20213;-67
2023/01/23 01:30:35;;;;;;;6.95;5.40;;;2.70;99.90;;;2.36;nan;102085.53;5012294;28;20694;-65
2023/01/23 01:33:03;;;;;;;8.27;6.20;;;2.60;99.90;;;2.34;nan;102090.69;5017674;28;20740;-66
2023/01/23 01:35:30;;;;;;;7.20;5.20;;;2.70;99.90;;;2.32;nan;102091.63;5020023;28;20245;-67
2023/01/23 01:37:57;;;;;;;6.53;5.20;;;2.60;99.90;;;2.29;nan;102097.66;5011961;28;20237;-65
2023/01/23 01:40:32;;;;;;;7.00;4.90;;;2.60;99.90;;;2.25;nan;102096.00;5011284;28;20210;-67
2023/01/23 01:43:04;;;;;;;8.32;5.18;;;2.60;99.90;;;2.21;nan;102098.66;5013298;28;20234;-68
2023/01/23 01:46:04;;;;;;;6.68;4.65;;;2.50;99.90;;;2.20;nan;102104.66;5010317;28;20218;-66
2023/01/23 01:48:40;;;;;;;6.95;4.72;;;2.50;99.90;;;2.19;nan;102101.22;5012754;28;20228;-68
2023/01/23 01:51:18;;;;;;;6.05;4.40;;;2.50;99.90;;;2.21;nan;102103.81;5022354;28;20212;-66
2023/01/23 01:53:51;;;;;;;5.20;3.90;;;2.40;99.90;;;2.22;nan;102102.91;5012764;28;20226;-66
2023/01/23 01:56:19;;;;;;;6.97;5.40;;;2.50;99.90;;;2.24;nan;102104.59;5009315;28;20557;-66
2023/01/23 01:58:50;;;;;;;6.57;4.65;;;2.50;99.90;;;2.24;nan;102101.16;5017090;28;20202;-66
2023/01/23 02:01:17;;;;;;;6.85;4.18;;;2.50;99.90;;;2.25;nan;102110.59;5015389;28;20267;-66
2023/01/23 02:03:45;;;;;;;7.57;5.57;;;2.50;99.90;;;2.25;nan;102106.31;5025563;28;20219;-67
2023/01/23 02:06:12;;;;;;;4.57;4.03;;;2.60;99.90;;;2.24;nan;102116.63;5010461;28;20660;-68
2023/01/23 02:08:47;;;;;;;6.35;4.40;;;2.50;99.90;;;2.23;nan;102113.22;5020290;28;20687;-67
2023/01/23 02:11:15;;;;;;;5.57;4.82;;;2.50;99.90;;;2.26;nan;102113.16;5043149;28;20570;-66
2023/01/23 02:13:44;;;;;;;7.40;5.38;;;2.50;99.90;;;2.26;nan;102115.72;5018610;28;20707;-66
2023/01/23 02:16:17;;;;;;;8.30;5.20;;;2.60;99.90;;;2.24;nan;102114.91;5022140;28;20209;-68
2023/01/23 02:18:48;;;;;;;5.85;4.85;;;2.50;99.90;;;2.24;nan;102112.31;5011308;28;20202;-67
2023/01/23 02:21:20;;;;;;;7.00;4.60;;;2.50;99.90;;;2.25;nan;102111.47;5026005;28;20194;-69
2023/01/23 02:24:05;;;;;;;6.18;5.18;;;2.50;99.90;;;2.26;nan;102113.16;5030034;28;20240;-67
2023/01/23 02:26:42;;;;;;;5.80;4.65;;;2.60;99.90;;;2.28;nan;102119.13;5009024;28;20209;-66
2023/01/23 02:29:12;;;;;;;6.72;5.07;;;2.60;99.90;;;2.25;nan;102121.78;5009605;28;20202;-67
2023/01/23 02:31:41;;;;;;;8.35;5.25;;;2.60;99.90;;;2.24;nan;102114.03;5006495;28;20253;-66
2023/01/23 02:34:11;;;;;;;6.20;5.00;;;2.50;99.90;;;2.24;nan;102111.47;5010830;28;20210;-66
2023/01/23 02:36:41;;;;;;;5.93;4.50;;;2.50;99.90;;;2.27;nan;102109.72;5024232;28;20618;-67
2023/01/23 02:39:19;;;;;;;7.50;4.88;;;2.60;99.90;;;2.28;nan;102118.28;5018695;28;20207;-66
2023/01/23 02:41:49;;;;;;;7.05;4.75;;;2.60;99.90;;;2.29;nan;102126.00;5009804;28;20775;-66
2023/01/23 02:44:27;;;;;;;6.95;4.97;;;2.60;99.90;;;2.32;nan;102125.09;5021986;28;20198;-69
2023/01/23 02:47:00;;;;;;;5.47;4.43;;;2.60;99.90;;;2.29;nan;102112.25;5012740;28;20616;-67
2023/01/23 02:49:28;;;;;;;6.22;4.85;;;2.60;99.90;;;2.28;nan;102126.00;5018881;28;20734;-66
2023/01/23 02:51:56;;;;;;;6.28;4.95;;;2.60;99.90;;;2.29;nan;102120.00;5028507;28;20203;-67
2023/01/23 02:54:23;;;;;;;5.25;4.38;;;2.60;99.90;;;2.32;nan;102122.53;5013726;28;20198;-67
2023/01/23 02:56:50;;;;;;;5.10;3.97;;;2.60;99.90;;;2.34;nan;102120.78;5013503;28;20221;-69
2023/01/23 03:02:04;;;;;;;8.82;4.93;;;2.60;99.90;;;2.36;nan;102129.34;5014472;28;20230;-66
2023/01/23 03:04:32;;;;;;;4.72;4.22;;;2.70;99.90;;;2.34;nan;102126.75;5025450;28;20198;-67
2023/01/23 03:06:59;;;;;;;7.07;5.25;;;2.60;99.90;;;2.34;nan;102131.91;5013463;28;20690;-67
2023/01/23 03:09:26;;;;;;;5.18;4.05;;;2.60;99.90;;;2.36;nan;102135.31;5018100;28;20197;-67
2023/01/23 03:11:53;;;;;;;5.93;4.40;;;2.60;99.90;;;2.36;nan;102119.03;5032681;28;20205;-67
2023/01/23 03:14:23;;;;;;;5.13;4.63;;;2.60;99.90;;;2.37;nan;102131.03;5028824;28;20207;-66
2023/01/23 03:16:52;;;;;;;6.97;4.53;;;2.70;99.90;;;2.38;nan;102132.75;5024119;28;20201;-67
2023/01/23 03:19:23;;;;;;;6.65;4.95;;;2.70;99.90;;;2.41;nan;102131.84;5017493;28;20237;-67
2023/01/23 03:21:50;;;;;;;6.72;4.88;;;2.70;99.90;;;2.38;nan;102128.41;5031252;28;20224;-66
2023/01/23 03:24:19;;;;;;;5.85;4.60;;;2.70;99.90;;;2.38;nan;102132.75;5057116;23;20229;-67
2023/01/23 03:26:47;;;;;;;6.78;5.07;;;2.70;99.90;;;2.38;nan;102127.59;5032364;28;20202;-67
2023/01/23 03:32:11;;;;;;;6.15;4.28;;;2.70;99.90;;;2.41;nan;102122.38;5022054;28;20212;-66
2023/01/23 03:34:38;;;;;;;6.07;5.20;;;2.70;99.90;;;2.37;nan;102128.44;4995769;28;20217;-66
2023/01/23 03:37:06;;;;;;;6.18;4.80;;;2.70;99.90;;;2.37;nan;102133.59;5003822;28;20202;-66
2023/01/23 03:42:21;;;;;;;6.00;4.43;;;2.70;99.90;;;2.34;nan;102136.25;5020754;28;20222;-66
2023/01/23 03:44:48;;;;;;;5.97;4.68;;;2.70;99.90;;;2.36;nan;102139.66;5033400;28;20272;-66
2023/01/23 03:47:15;;;;;;;6.88;5.28;;;2.70;99.90;;;2.33;nan;102144.81;5014589;28;20666;-66
2023/01/23 03:49:42;;;;;;;6.85;5.30;;;2.60;99.90;;;2.32;nan;102140.56;5027113;28;20267;-66
2023/01/23 03:52:09;;;;;;;8.93;5.22;;;2.60;99.90;;;2.30;nan;102142.28;5002694;28;20647;-66
2023/01/23 03:54:36;;;;;;;6.57;5.13;;;2.60;99.90;;;2.30;nan;102144.84;4993110;28;20668;-66
2023/01/23 03:57:03;;;;;;;7.57;4.90;;;2.60;99.90;;;2.29;nan;102143.16;4992118;28;20203;-66
2023/01/23 03:59:30;;;;;;;8.55;6.60;;;2.60;99.90;;;2.30;nan;102140.56;5000038;28;20259;-65
2023/01/23 04:01:57;;;;;;;6.03;4.38;;;2.60;99.90;;;2.32;nan;102141.38;5017979;28;20200;-65
2023/01/23 04:04:23;;;;;;;6.80;4.95;;;2.60;99.90;;;2.33;nan;102150.84;4993262;28;20275;-66
2023/01/23 04:06:50;;;;;;;7.57;5.40;;;2.60;99.90;;;2.33;nan;102147.41;5014820;28;20213;-66
2023/01/23 04:09:17;;;;;;;7.97;6.13;;;2.60;99.90;;;2.30;nan;102138.00;5005743;28;20207;-66
2023/01/23 04:11:44;;;;;;;8.80;5.82;;;2.60;99.90;;;2.35;nan;102135.34;4993092;28;20656;-66
2023/01/23 04:14:11;;;;;;;8.23;6.20;;;2.70;99.90;;;2.35;nan;102125.03;4992471;28;20219;-66
2023/01/23 04:16:38;;;;;;;4.43;3.45;;;2.70;99.90;;;2.33;nan;102134.53;4993415;28;20206;-66
2023/01/23 04:19:05;;;;;;;5.65;4.25;;;2.60;99.90;;;2.29;nan;102132.88;5006364;28;20562;-66
2023/01/23 04:21:32;;;;;;;7.85;5.78;;;2.60;99.90;;;2.28;nan;102137.16;5007224;28;20204;-66
2023/01/23 04:23:59;;;;;;;6.45;5.30;;;2.60;99.90;;;2.28;nan;102139.72;4992592;28;20242;-66
2023/01/23 04:26:26;;;;;;;8.85;5.50;;;2.60;99.90;;;2.29;nan;102143.16;4997288;28;20276;-66
2023/01/23 04:28:52;;;;;;;6.85;5.65;;;2.60;99.90;;;2.27;nan;102135.47;5009906;28;20206;-65
2023/01/23 04:31:19;;;;;;;6.72;5.22;;;2.60;99.90;;;2.26;nan;102138.06;5016736;28;20249;-66
2023/01/23 04:33:46;;;;;;;8.10;5.90;;;2.60;99.90;;;2.25;nan;102144.09;5032347;28;20217;-66
2023/01/23 04:36:13;;;;;;;8.02;5.68;;;2.50;99.90;;;2.24;nan;102145.81;5021724;28;20214;-64
2023/01/23 04:38:40;;;;;;;7.28;5.40;;;2.50;99.90;;;2.25;nan;102150.09;5015748;28;20212;-67
2023/01/23 04:41:16;;;;;;;7.38;5.78;;;2.50;99.90;;;2.27;nan;102150.06;5015821;28;20211;-66
2023/01/23 04:43:43;;;;;;;4.70;3.35;;;2.50;99.90;;;2.28;nan;102149.19;4979705;28;20222;-66
2023/01/23 04:46:13;;;;;;;7.13;5.70;;;2.60;99.90;;;2.27;nan;102150.94;5012277;28;20199;-65
2023/01/23 04:48:40;;;;;;;9.05;5.57;;;2.60;99.90;;;2.26;nan;102156.06;5004141;28;20284;-64
2023/01/23 04:51:07;;;;;;;4.28;2.47;;;2.50;99.90;;;2.29;nan;102154.34;4984114;28;20289;-66
2023/01/23 04:53:34;;;;;;;9.32;5.20;;;2.60;99.90;;;2.28;nan;102156.91;5007312;28;20230;-66
2023/01/23 04:56:02;;;;;;;9.95;5.53;;;2.60;99.90;;;2.28;nan;102156.91;5025871;28;20206;-66
2023/01/23 04:58:29;;;;;;;6.68;4.65;;;2.60;99.90;;;2.21;nan;102161.31;5011393;28;20595;-66
2023/01/23 05:01:05;;;;;;;5.15;4.22;;;2.50;99.90;;;2.22;nan;102163.00;4998230;28;20667;-66
2023/01/23 05:03:33;;;;;;;3.33;2.92;;;2.50;99.90;;;2.26;nan;102172.38;5011466;28;20241;-66
2023/01/23 05:06:01;;;;;;;8.75;5.72;;;2.50;99.90;;;2.24;nan;102171.56;4998304;28;20229;-66
2023/01/23 05:08:27;;;;;;;6.53;5.28;;;2.60;99.90;;;2.27;nan;102171.53;5008651;28;20261;-66
2023/01/23 05:10:54;;;;;;;3.22;2.45;;;2.60;99.90;;;2.27;nan;102180.97;5008546;28;20206;-66
2023/01/23 05:13:21;;;;;;;6.57;3.75;;;2.60;99.90;;;2.27;nan;102179.25;4997595;28;20218;-66
2023/01/23 05:15:48;;;;;;;1.42;1.27;;;2.60;99.90;;;2.32;nan;102186.94;5012389;28;20632;-65
2023/01/23 05:18:15;;;;;;;3.50;3.20;;;2.60;99.90;;;2.32;nan;102194.66;4991964;28;20268;-66
2023/01/23 05:20:42;;;;;;;4.57;3.28;;;2.60;99.90;;;2.32;nan;102210.09;5001020;28;20218;-66
2023/01/23 05:23:09;;;;;;;6.00;3.63;;;2.60;99.90;;;2.32;nan;102199.81;5012923;28;20230;-66
2023/01/23 05:25:36;;;;;;;7.53;5.13;;;2.60;99.90;;;2.37;nan;102198.00;5010696;28;20211;-66
2023/01/23 05:28:03;;;;;;;6.22;4.70;;;2.70;99.90;;;2.40;nan;102194.53;5004884;28;20221;-66
2023/01/23 05:30:30;;;;;;;5.82;4.07;;;2.70;99.90;;;2.40;nan;102191.97;5009516;28;20206;-66
2023/01/23 05:32:57;;;;;;;5.63;2.83;;;2.70;99.90;;;2.43;nan;102208.22;4986250;28;20241;-67
2023/01/23 05:35:24;;;;;;;8.68;4.90;;;2.70;99.90;;;2.45;nan;102205.66;5001114;28;20206;-67
2023/01/23 05:37:52;;;;;;;4.90;3.03;;;2.70;99.90;;;2.46;nan;102203.03;4996627;28;20207;-66
2023/01/23 05:40:20;;;;;;;5.78;4.45;;;2.70;99.90;;;2.49;nan;102197.00;5002944;28;20215;-66
2023/01/23 05:42:48;;;;;;;3.85;2.95;;;2.80;99.90;;;2.51;nan;102209.00;5016939;28;20235;-66
2023/01/23 05:45:16;;;;;;;5.40;4.10;;;2.80;99.90;;;2.54;nan;102206.34;5000895;28;20664;-67
2023/01/23 05:47:43;;;;;;;2.88;2.10;;;2.80;99.90;;;2.57;nan;102211.47;5009964;28;20263;-64
2023/01/23 05:50:17;;;;;;;5.75;3.95;;;2.90;99.90;;;2.58;nan;102207.19;4995950;28;20206;-64
2023/01/23 05:52:45;;;;;;;5.82;4.00;;;2.90;99.90;;;2.56;nan;102212.34;5009400;28;20234;-67
2023/01/23 05:55:12;;;;;;;5.70;4.07;;;2.90;99.90;;;2.56;nan;102219.19;4985574;28;20207;-67
2023/01/23 05:57:40;;;;;;;8.00;5.10;;;2.90;99.90;;;2.54;nan;102208.94;4991239;28;20269;-66
2023/01/23 06:00:12;;;;;;;4.78;3.30;;;2.80;99.90;;;2.54;nan;102221.81;5019359;28;20209;-66
2023/01/23 06:02:39;;;;;;;7.72;3.60;;;2.80;99.90;;;2.52;nan;102228.72;5001778;28;20240;-66
2023/01/23 06:05:06;;;;;;;5.50;4.05;;;2.80;99.90;;;2.55;nan;102225.25;4990421;28;20203;-65
2023/01/23 06:07:33;;;;;;;6.55;3.83;;;2.80;99.90;;;2.55;nan;102227.81;4991137;28;20217;-66
2023/01/23 06:10:00;;;;;;;6.35;4.25;;;2.90;99.90;;;2.54;nan;102220.94;4990291;28;20590;-66
2023/01/23 06:12:27;;;;;;;3.25;2.95;;;2.80;99.90;;;2.55;nan;102231.25;4994354;28;20194;-65
2023/01/23 06:14:54;;;;;;;4.30;3.50;;;2.90;99.90;;;2.56;nan;102230.38;5004642;28;20191;-67
2023/01/23 06:17:21;;;;;;;9.23;4.38;;;2.80;99.90;;;2.58;nan;102230.38;5029801;28;20198;-65
2023/01/23 06:19:48;;;;;;;2.47;2.20;;;2.80;99.90;;;2.59;nan;102232.91;5013164;28;20673;-65
2023/01/23 06:22:15;;;;;;;3.72;2.92;;;2.90;99.90;;;2.58;nan;102235.53;5024549;28;20226;-65
2023/01/23 06:24:42;;;;;;;3.97;3.50;;;2.90;99.90;;;2.56;nan;102226.94;4996689;28;20238;-67
2023/01/23 06:27:09;;;;;;;6.88;3.60;;;2.90;99.90;;;2.58;nan;102230.38;5011186;28;20534;-66
2023/01/23 06:29:36;;;;;;;5.97;3.20;;;2.90;99.90;;;2.56;nan;102230.38;5022128;28;20201;-66
2023/01/23 06:32:04;;;;;;;4.32;2.83;;;2.90;99.90;;;2.56;nan;102230.38;5030014;28;20207;-65
2023/01/23 06:34:31;;;;;;;2.30;2.15;;;2.80;99.90;;;2.62;nan;102229.47;5012688;28;20227;-65
2023/01/23 06:36:58;;;;;;;3.80;2.88;;;2.90;99.90;;;2.62;nan;102229.47;5007110;28;20271;-65
2023/01/23 06:39:25;;;;;;;3.33;3.00;;;2.90;99.90;;;2.62;nan;102237.19;5015723;28;20208;-66
2023/01/23 06:41:52;;;;;;;4.50;3.55;;;2.90;99.90;;;2.59;nan;102234.63;5019667;28;20206;-66
2023/01/23 06:44:19;;;;;;;3.70;3.10;;;2.90;99.90;;;2.58;nan;102238.94;5005004;28;20634;-68
2023/01/23 06:46:46;;;;;;;6.40;3.55;;;2.90;99.90;;;2.56;nan;102237.25;5018640;28;20210;-65
2023/01/23 06:49:13;;;;;;;3.28;2.75;;;2.80;99.90;;;2.53;nan;102238.16;4998065;28;20218;-65
2023/01/23 06:51:40;;;;;;;6.10;3.97;;;2.80;99.90;;;2.52;nan;102236.44;5025310;28;20209;-68
2023/01/23 06:54:07;;;;;;;4.00;3.58;;;2.80;99.90;;;2.50;nan;102235.63;5010281;28;20226;-67
2023/01/23 06:56:34;;;;;;;4.28;3.70;;;2.80;99.90;;;2.53;nan;102229.56;5019122;28;20732;-66
2023/01/23 06:59:01;;;;;;;4.63;4.13;;;2.80;99.90;;;2.51;nan;102231.31;5005625;28;20217;-65
2023/01/23 07:01:28;;;;;;;5.13;4.13;;;2.80;99.90;;;2.44;nan;102230.56;5003260;28;20207;-65
2023/01/23 07:03:55;;;;;;;4.00;3.40;;;2.70;99.90;;;2.42;nan;102232.28;4993159;28;20746;-65
2023/01/23 07:06:22;;;;;;;5.25;3.70;;;2.70;99.90;;;2.38;nan;102241.75;5005542;28;20198;-65
2023/01/23 07:08:49;;;;;;;5.35;3.63;;;2.70;99.90;;;2.38;nan;102240.06;5028168;28;20203;-65
2023/01/23 07:11:16;;;;;;;3.70;2.90;;;2.60;99.90;;;2.35;nan;102248.69;5013505;28;20674;-65
2023/01/23 07:13:43;;;;;;;4.80;4.32;;;2.60;99.90;;;2.32;nan;102241.03;5022196;28;20238;-65
2023/01/23 07:16:10;;;;;;;2.85;2.65;;;2.60;99.90;;;2.33;nan;102256.44;5021941;28;20203;-64
2023/01/23 07:18:37;;;;;;;7.38;4.50;;;2.70;99.90;;;2.33;nan;102273.63;5021192;28;20214;-64
2023/01/23 07:21:05;;;;;;;4.05;3.70;;;2.60;99.90;;;2.31;nan;102265.91;5006826;28;20214;-65
2023/01/23 07:23:33;;;;;;;3.95;3.65;;;2.60;99.90;;;2.29;nan;102261.66;5009167;28;20234;-65
2023/01/23 07:26:03;;;;;;;4.20;3.42;;;2.60;99.90;;;2.31;nan;102273.66;5014623;28;20222;-66
2023/01/23 07:28:30;;;;;;;4.10;3.30;;;2.60;99.90;;;2.31;nan;102273.66;5021868;28;20207;-65
2023/01/23 07:30:58;;;;;;;4.45;4.05;;;2.60;99.90;;;2.35;nan;102283.03;5023902;28;20214;-65
2023/01/23 07:33:25;;;;;;;2.33;2.05;;;2.60;99.90;;;2.37;nan;102285.59;5011575;28;20226;-65
2023/01/23 07:35:52;;;;;;;4.28;3.00;;;2.60;99.90;;;2.43;nan;102300.13;5027383;28;20206;-65
2023/01/23 07:38:22;;;;;;;4.55;3.88;;;2.70;99.90;;;2.46;nan;102297.50;5014135;28;20211;-66
2023/01/23 07:40:49;;;;;;;4.72;2.42;;;2.70;99.90;;;2.49;nan;102300.91;5026099;28;20202;-65
2023/01/23 07:43:17;;;;;;;3.65;3.10;;;2.80;99.90;;;2.53;nan;102310.31;5016760;28;20683;-65
2023/01/23 07:45:44;;;;;;;2.70;2.20;;;2.80;99.90;;;2.56;nan;102302.53;4994531;28;20715;-65
2023/01/23 07:48:11;;;;;;;3.25;2.20;;;2.80;99.90;;;2.61;nan;102316.22;5007804;28;20268;-65
2023/01/23 07:50:38;;;;;;;2.50;2.30;;;2.90;99.90;;;2.69;nan;102311.81;5007458;28;20202;-65
2023/01/23 07:53:05;;;;;;;3.40;3.10;;;3.00;99.90;;;2.71;nan;102317.78;4995900;28;20650;-64
2023/01/23 07:55:32;;;;;;;2.35;1.55;;;3.00;99.90;;;2.75;nan;102324.63;5014029;28;20214;-64
2023/01/23 07:57:59;;;;;;;3.97;3.10;;;3.00;99.90;;;2.78;nan;102324.59;4995138;28;20202;-63
2023/01/23 08:00:26;;;;;;;3.65;3.30;;;3.10;99.90;;;2.84;nan;102324.50;5024431;28;20788;-65
2023/01/23 08:02:56;;;;;;;0.77;0.77;;;3.10;99.90;;;2.96;nan;102333.81;4994953;28;20227;-65
2023/01/23 08:05:23;;;;;;;3.63;2.70;;;3.20;99.90;;;2.98;nan;102321.75;5001973;28;20260;-64
2023/01/23 08:07:50;;;;;;;2.72;2.53;;;3.30;99.90;;;3.02;nan;102320.81;5012264;28;20618;-64
2023/01/23 08:10:29;;;;;;;3.80;3.40;;;3.30;99.90;;;3.07;nan;102322.44;5008229;28;20206;-64
2023/01/23 08:12:56;;;;;;;2.70;2.50;;;3.30;99.90;;;3.07;nan;102313.84;4993137;28;20241;-65
2023/01/23 08:15:23;;;;;;;4.85;3.30;;;3.40;99.90;;;3.13;nan;102314.63;5011661;28;20214;-65
2023/01/23 08:17:50;;;;;;;3.53;3.22;;;3.40;99.90;;;3.20;nan;102317.09;5016294;28;20213;-65
2023/01/23 08:20:17;;;;;;;3.35;3.05;;;3.50;99.90;;;3.29;nan;102319.56;5023305;28;20202;-65
2023/01/23 08:22:46;;;;;;;5.10;4.00;;;3.60;99.90;;;3.38;nan;102311.69;5009281;28;20228;-65
2023/01/23 08:25:13;;;;;;;3.75;3.35;;;3.60;99.90;;;3.54;nan;102313.13;5031459;28;20279;-65
2023/01/23 08:27:40;;;;;;;4.32;3.92;;;3.80;99.90;;;3.73;nan;102320.53;5025275;28;20199;-65
2023/01/23 08:30:07;;;;;;;3.78;3.35;;;4.00;99.90;;;4.58;nan;102318.91;5015225;28;20679;-65
2023/01/23 08:32:35;;;;;;;3.95;3.45;;;4.70;99.90;;;6.00;nan;102311.28;5010210;28;20222;-64
2023/01/23 08:35:03;;;;;;;4.63;4.00;;;6.10;99.90;;;7.27;nan;102310.09;5020673;28;20275;-65
2023/01/23 08:37:32;;;;;;;3.40;3.10;;;7.60;99.90;;;7.43;nan;102313.91;5006722;28;20634;-65
2023/01/23 08:39:59;;;;;;;3.73;3.30;;;7.90;99.90;;;7.07;nan;102315.06;5009552;28;21207;-65
2023/01/23 08:42:26;;;;;;;5.33;4.33;;;7.60;99.90;;;6.62;nan;102319.88;5012260;28;21205;-65
2023/01/23 08:44:53;;;;;;;5.47;4.40;;;7.10;99.90;;;6.09;nan;102323.97;5006751;28;20669;-65
2023/01/23 08:47:20;;;;;;;6.30;4.53;;;6.70;99.90;;;5.82;nan;102319.47;5009313;28;21196;-66
2023/01/23 08:49:47;;;;;;;4.83;4.03;;;6.30;99.90;;;6.28;nan;102319.97;5004301;28;21064;-65
2023/01/23 08:52:14;;;;;;;7.37;3.67;;;6.60;99.90;;;8.23;nan;102318.94;5020420;28;20640;-66
2023/01/23 08:54:41;;;;;;;9.50;4.00;;;8.30;99.90;;;10.47;nan;102315.09;5009434;28;21270;-65
2023/01/23 08:57:08;;;;;;;5.20;4.17;;;10.70;99.90;;;;;;5011284;28;20643;-65
2023/01/23 08:59:34;;;;;;;7.07;4.57;;;11.60;99.90;;;9.83;nan;102307.47;5013676;28;20628;-66
2023/01/23 09:02:02;;;;;;;4.40;4.00;;;10.80;99.90;;;8.67;nan;102309.53;5014074;28;21241;-66
2023/01/23 09:04:29;;;;;;;6.67;4.97;;;9.60;99.90;;;7.64;nan;102320.16;4992928;28;20667;-65
2023/01/23 09:06:56;;;;;;;4.67;4.17;;;8.50;99.90;;;6.82;nan;102321.88;5006037;28;20633;-65
2023/01/23 09:09:23;;;;;;;6.13;4.43;;;7.60;99.90;;;6.09;nan;102320.53;5005693;28;21259;-66
2023/01/23 09:11:50;;;;;;;3.70;3.13;;;6.80;99.90;;;5.53;nan;102324.53;5011924;28;20629;-65
2023/01/23 09:14:17;;;;;;;5.57;4.23;;;6.10;99.90;;;5.07;nan;102314.41;5003863;28;21039;-65
2023/01/23 09:16:44;;;;;;;4.47;4.07;;;5.60;99.90;;;4.74;nan;102322.91;4993635;28;21186;-66
2023/01/23 09:19:11;;;;;;;4.30;3.50;;;5.20;99.90;;;4.49;nan;102324.28;5006709;28;20205;-65
2023/01/23 09:21:38;;;;;;;4.45;4.05;;;5.00;99.90;;;4.35;nan;102328.88;5011666;28;20629;-67
2023/01/23 09:24:06;;;;;;;6.10;4.15;;;4.80;99.90;;;4.20;nan;102329.16;5035856;22;20287;-64
2023/01/23 09:26:34;;;;;;;3.35;3.05;;;4.60;99.90;;;4.10;nan;102336.25;5013533;28;20289;-64
2023/01/23 09:29:01;;;;;;;3.53;2.85;;;4.50;99.90;;;4.09;nan;102333.69;5013261;28;20212;-64
2023/01/23 09:31:28;;;;;;;4.18;3.40;;;4.40;99.90;;;4.07;nan;102343.22;5030250;28;20198;-67
2023/01/23 09:33:55;;;;;;;6.78;5.20;;;4.40;99.90;;;3.98;nan;102330.44;5025785;28;20233;-68
2023/01/23 09:36:21;;;;;;;4.28;3.42;;;4.30;99.90;;;3.90;nan;102343.47;5008137;28;20217;-67
2023/01/23 09:39:07;;;;;;;4.13;3.72;;;4.30;99.90;;;3.85;nan;102335.81;5002154;28;20264;-66
2023/01/23 09:41:34;;;;;;;5.78;4.20;;;4.20;99.90;;;3.87;nan;102331.50;5015300;28;20582;-66
2023/01/23 09:44:22;;;;;;;6.65;3.58;;;4.20;99.90;;;3.98;nan;102333.03;5025530;28;20242;-68
2023/01/23 09:47:01;;;;;;;4.60;4.10;;;4.20;99.90;;;4.02;nan;102332.09;5006640;28;20687;-66
2023/01/23 09:49:52;;;;;;;5.35;4.80;;;4.30;99.90;;;4.02;nan;102326.94;5008443;28;20198;-65
2023/01/23 09:52:23;;;;;;;2.95;2.75;;;4.30;99.90;;;4.05;nan;102334.59;5014154;28;20203;-66
2023/01/23 09:55:03;;;;;;;4.85;3.10;;;4.30;99.90;;;4.09;nan;102344.03;4991639;28;20222;-66
2023/01/23 09:57:45;;;;;;;4.53;4.07;;;4.40;99.90;;;4.15;nan;102337.03;5006128;28;20747;-66
2023/01/23 10:00:30;;;;;;;4.20;3.70;;;4.40;99.90;;;4.15;nan;102347.34;5008084;28;20291;-65
2023/01/23 10:03:00;;;;;;;1.48;1.40;;;4.40;99.90;;;4.13;nan;102354.25;5029977;28;20222;-67
2023/01/23 10:05:58;;;;;;;2.33;1.65;;;4.40;99.90;;;4.14;nan;102358.56;5029851;28;20701;-65
2023/01/23 10:09:10;;;;;;;4.18;2.50;;;4.40;99.90;;;4.09;nan;102354.38;5004389;28;20232;-65
2023/01/23 10:12:05;;;;;;;3.95;3.65;;;4.40;99.90;;;4.09;nan;102350.03;4992899;28;20274;-64
2023/01/23 10:14:50;;;;;;;3.60;2.63;;;4.30;99.90;;;4.09;nan;102364.69;5011426;28;20226;-66
2023/01/23 10:18:06;;;;;;;2.60;2.15;;;4.30;99.90;;;4.11;nan;102350.03;5010213;28;20629;-68
2023/01/23 10:20:52;;;;;;;4.10;2.58;;;4.40;99.90;;;4.15;nan;102338.75;4993624;28;20205;-66
2023/01/23 10:24:14;;;;;;;5.45;3.97;;;4.40;99.90;;;4.13;nan;102333.59;5018775;28;20718;-66
2023/01/23 10:26:45;;;;;;;4.25;3.85;;;4.40;99.90;;;4.14;nan;102339.59;4992629;28;20212;-67
2023/01/23 10:29:29;;;;;;;4.43;3.20;;;4.40;99.90;;;4.16;nan;102336.13;5020761;28;20267;-69
2023/01/23 10:32:00;;;;;;;3.90;3.40;;;4.40;99.90;;;4.19;nan;102338.66;4994873;28;20210;-66
2023/01/23 10:34:34;;;;;;;4.68;1.27;;;4.50;99.90;;;4.17;nan;102335.25;5010720;28;20652;-66
2023/01/23 10:37:20;;;;;;;5.68;3.90;;;4.40;99.90;;;4.08;nan;102330.25;5009313;28;20203;-66
2023/01/23 10:40:04;;;;;;;5.22;3.92;;;4.40;99.90;;;4.01;nan;102331.25;4992411;28;20207;-66
2023/01/23 10:42:31;;;;;;;4.55;3.88;;;4.30;99.90;;;3.97;nan;102341.66;4997336;28;20208;-66
2023/01/23 10:44:58;;;;;;;4.00;3.55;;;4.20;99.90;;;3.94;nan;102330.50;5010074;28;20659;-65
2023/01/23 10:47:42;;;;;;;3.38;3.17;;;4.20;99.90;;;3.96;nan;102337.38;5013162;28;20400;-65
2023/01/23 10:50:10;;;;;;;0.98;0.98;;;4.20;99.90;;;3.98;nan;102333.03;5023834;28;20202;-65
2023/01/23 10:52:45;;;;;;;5.45;4.82;;;4.20;99.90;;;4.00;nan;102329.56;5003641;28;20237;-66
2023/01/23 10:55:18;;;;;;;4.40;3.17;;;4.30;99.90;;;4.05;nan;102332.88;5005540;28;20601;-66
2023/01/23 10:57:48;;;;;;;4.43;3.50;;;4.30;99.90;;;4.09;nan;102326.78;5008992;28;20679;-65
2023/01/23 11:00:25;;;;;;;4.05;3.40;;;4.40;99.90;;;4.16;nan;102333.53;4990834;28;20211;-66